createdAt,value
2023-03-11T00:01:58.495Z,6.05
2023-03-11T00:05:03.963Z,6.22
2023-03-11T00:08:09.875Z,6.55
2023-03-11T00:11:17.783Z,6.40
2023-03-11T00:14:22.962Z,4.40
2023-03-11T00:17:28.272Z,6.90
2023-03-11T00:20:34.955Z,5.78
2023-03-11T00:23:40.248Z,6.28
2023-03-11T00:26:47.832Z,7.28
2023-03-11T00:29:53.001Z,5.80
2023-03-11T00:32:59.083Z,5.78
2023-03-11T00:36:04.523Z,5.78
2023-03-11T00:39:11.311Z,5.57
2023-03-11T00:42:19.703Z,5.57
2023-03-11T00:48:29.927Z,5.20
2023-03-11T00:51:35.188Z,5.38
2023-03-11T00:54:40.449Z,5.25
2023-03-11T00:57:48.367Z,5.22
2023-03-11T01:00:54.037Z,5.80
2023-03-11T01:03:59.785Z,6.05
2023-03-11T01:07:05.099Z,4.85
2023-03-11T01:10:11.367Z,5.30
2023-03-11T01:13:19.975Z,4.75
2023-03-11T01:16:25.147Z,5.35
2023-03-11T01:19:30.480Z,5.30
2023-03-11T01:22:35.739Z,5.15
2023-03-11T01:25:41.172Z,4.68
2023-03-11T01:28:49.099Z,5.32
2023-03-11T01:31:54.402Z,5.32
2023-03-11T01:34:59.544Z,4.95
2023-03-11T01:38:04.787Z,5.22
2023-03-11T01:41:11.577Z,4.82
2023-03-11T01:44:20.007Z,4.80
2023-03-11T01:47:38.648Z,5.43
2023-03-11T01:50:47.362Z,5.28
2023-03-11T01:53:52.741Z,6.03
2023-03-11T01:57:01.294Z,5.30
2023-03-11T02:00:11.067Z,4.50
2023-03-11T02:03:21.204Z,5.22
2023-03-11T02:06:26.877Z,5.07
2023-03-11T02:09:32.663Z,5.45
2023-03-11T02:12:39.192Z,5.55
2023-03-11T02:15:47.422Z,5.57
2023-03-11T02:18:52.637Z,5.47
2023-03-11T02:21:58.032Z,6.05
2023-03-11T02:25:06.151Z,5.65
2023-03-11T02:28:15.650Z,5.53
2023-03-11T02:31:22.667Z,6.22
2023-03-11T02:34:29.684Z,6.30
2023-03-11T02:37:34.916Z,6.35
2023-03-11T02:40:48.630Z,6.90
2023-03-11T02:43:59.153Z,6.68
2023-03-11T02:47:04.630Z,7.00
2023-03-11T02:50:10.681Z,7.05
2023-03-11T02:53:16.302Z,6.18
2023-03-11T02:56:21.846Z,7.75
2023-03-11T02:59:30.121Z,7.35
2023-03-11T03:02:36.660Z,7.95
2023-03-11T03:05:42.684Z,8.25
2023-03-11T03:08:48.070Z,8.82
2023-03-11T03:11:53.513Z,9.13
2023-03-11T03:15:01.497Z,9.25
2023-03-11T03:18:08.648Z,9.55
2023-03-11T03:21:14.097Z,10.50
2023-03-11T03:24:19.515Z,10.23
2023-03-11T03:27:24.813Z,9.75
2023-03-11T03:30:33.236Z,10.00
2023-03-11T03:33:38.547Z,10.18
2023-03-11T03:36:45.231Z,10.38
2023-03-11T03:39:50.593Z,9.50
2023-03-11T03:42:56.333Z,10.02
2023-03-11T03:46:05.801Z,10.07
2023-03-11T03:49:17.864Z,10.32
2023-03-11T03:52:23.784Z,10.38
2023-03-11T03:55:29.688Z,10.48
2023-03-11T03:58:36.385Z,11.10
2023-03-11T04:01:44.377Z,11.38
2023-03-11T04:04:49.655Z,11.77
2023-03-11T04:07:54.867Z,13.05
2023-03-11T04:11:01.424Z,12.27
2023-03-11T04:14:08.909Z,12.13
2023-03-11T04:17:23.384Z,11.82
2023-03-11T04:20:30.029Z,11.30
2023-03-11T04:23:35.718Z,12.70
2023-03-11T04:26:41.231Z,12.98
2023-03-11T04:29:51.295Z,13.75
2023-03-11T04:32:59.604Z,13.10
2023-03-11T04:36:08.278Z,13.93
2023-03-11T04:39:15.294Z,14.93
2023-03-11T04:42:22.545Z,16.67
2023-03-11T04:45:28.252Z,21.85
2023-03-11T04:48:38.783Z,19.48
2023-03-11T04:51:45.931Z,19.52
2023-03-11T04:54:53.267Z,22.20
2023-03-11T04:57:59.218Z,18.23
2023-03-11T05:01:04.312Z,18.23
2023-03-11T05:04:13.325Z,17.90
2023-03-11T05:07:19.954Z,15.18
2023-03-11T05:10:25.989Z,14.95
2023-03-11T05:13:34.791Z,14.63
2023-03-11T05:16:40.761Z,13.68
2023-03-11T05:19:49.076Z,14.35
2023-03-11T05:23:02.084Z,13.60
2023-03-11T05:26:09.752Z,13.68
2023-03-11T05:29:16.405Z,13.18
2023-03-11T05:32:22.235Z,12.30
2023-03-11T05:35:30.801Z,12.32
2023-03-11T05:38:36.104Z,12.13
2023-03-11T05:41:41.688Z,11.88
2023-03-11T05:44:47.159Z,11.43
2023-03-11T05:47:52.967Z,10.27
2023-03-11T05:51:00.904Z,9.60
2023-03-11T05:54:11.899Z,10.25
2023-03-11T05:57:18.645Z,10.60
2023-03-11T06:00:24.776Z,9.93
2023-03-11T06:03:31.511Z,9.90
2023-03-11T06:06:41.934Z,9.95
2023-03-11T06:09:48.005Z,10.65
2023-03-11T06:12:56.211Z,11.40
2023-03-11T06:16:05.848Z,12.13
2023-03-11T06:19:11.181Z,11.93
2023-03-11T06:22:23.616Z,11.15
2023-03-11T06:25:29.362Z,11.73
2023-03-11T06:28:34.801Z,11.80
2023-03-11T06:31:40.417Z,11.73
2023-03-11T06:34:48.359Z,11.85
2023-03-11T06:37:56.642Z,10.90
2023-03-11T06:41:02.140Z,10.45
2023-03-11T06:44:08.739Z,10.30
2023-03-11T06:47:14.856Z,10.45
2023-03-11T06:50:20.401Z,10.30
2023-03-11T06:53:28.764Z,9.57
2023-03-11T06:56:33.897Z,9.63
2023-03-11T06:59:44.026Z,9.50
2023-03-11T07:02:52.388Z,8.93
2023-03-11T07:05:58.647Z,9.05
2023-03-11T07:09:06.740Z,7.80
2023-03-11T07:12:15.057Z,7.45
2023-03-11T07:15:20.807Z,6.80
2023-03-11T07:18:26.664Z,7.40
2023-03-11T07:21:32.868Z,6.85
2023-03-11T07:24:40.840Z,6.78
2023-03-11T07:27:46.311Z,7.25
2023-03-11T07:30:51.542Z,6.85
2023-03-11T07:33:57.500Z,6.95
2023-03-11T07:37:02.864Z,6.70
2023-03-11T07:40:11.859Z,7.55
2023-03-11T07:43:17.780Z,6.47
2023-03-11T07:46:23.247Z,7.07
2023-03-11T07:49:28.620Z,7.93
2023-03-11T07:52:34.797Z,7.80
2023-03-11T07:55:42.378Z,6.30
2023-03-11T07:58:48.152Z,6.85
2023-03-11T08:01:53.346Z,6.90
2023-03-11T08:04:59.797Z,7.07
2023-03-11T08:08:05.126Z,6.63
2023-03-11T08:11:13.742Z,7.00
2023-03-11T08:14:19.027Z,7.30
2023-03-11T08:17:24.409Z,7.30
2023-03-11T08:20:29.889Z,7.60
2023-03-11T08:23:35.604Z,7.03
2023-03-11T08:26:43.480Z,7.10
2023-03-11T08:29:48.580Z,8.45
2023-03-11T08:32:54.182Z,7.80
2023-03-11T08:35:59.529Z,7.25
2023-03-11T08:39:05.149Z,7.25
2023-03-11T08:42:13.380Z,6.45
2023-03-11T08:45:18.397Z,6.22
2023-03-11T08:48:23.932Z,7.30
2023-03-11T08:51:29.365Z,7.65
2023-03-11T08:54:35.083Z,6.38
2023-03-11T08:57:42.876Z,6.43
2023-03-11T09:00:48.153Z,6.40
2023-03-11T09:03:53.154Z,6.63
2023-03-11T09:06:58.391Z,6.90
2023-03-11T09:10:03.616Z,6.22
2023-03-11T09:13:11.633Z,6.70
2023-03-11T09:16:17.105Z,5.88
2023-03-11T09:19:22.249Z,6.72
2023-03-11T09:22:27.815Z,6.30
2023-03-11T09:25:33.307Z,5.97
2023-03-11T09:28:41.039Z,6.15
2023-03-11T09:31:46.572Z,6.32
2023-03-11T09:34:51.749Z,6.57
2023-03-11T09:37:56.940Z,6.38
2023-03-11T09:41:04.897Z,6.28
2023-03-11T09:44:19.338Z,6.30
2023-03-11T09:47:39.767Z,6.53
2023-03-11T09:50:49.040Z,5.75
2023-03-11T09:53:58.218Z,5.43
2023-03-11T09:57:04.524Z,6.63
2023-03-11T10:00:14.778Z,5.28
2023-03-11T10:03:28.931Z,5.63
2023-03-11T10:06:34.456Z,6.40
2023-03-11T10:09:43.007Z,6.07
2023-03-11T10:12:54.137Z,5.85
2023-03-11T10:16:06.886Z,6.10
2023-03-11T10:19:14.846Z,7.20
2023-03-11T10:22:25.714Z,6.93
2023-03-11T10:25:32.618Z,7.53
2023-03-11T10:28:39.597Z,6.57
2023-03-11T10:31:50.676Z,6.82
2023-03-11T10:35:02.169Z,7.88
2023-03-11T10:38:11.278Z,7.65
2023-03-11T10:41:18.209Z,7.18
2023-03-11T10:44:26.105Z,7.82
2023-03-11T10:47:34.022Z,8.05
2023-03-11T10:50:48.721Z,7.57
2023-03-11T10:53:55.133Z,7.72
2023-03-11T10:57:01.879Z,8.23
2023-03-11T11:00:17.372Z,8.60
2023-03-11T11:03:27.020Z,8.63
2023-03-11T11:06:33.249Z,7.97
2023-03-11T11:09:38.704Z,7.53
2023-03-11T11:12:54.388Z,7.60
2023-03-11T11:16:04.035Z,7.97
2023-03-11T11:19:14.878Z,8.10
2023-03-11T11:22:21.020Z,7.85
2023-03-11T11:25:31.463Z,7.93
2023-03-11T11:28:37.959Z,8.40
2023-03-11T11:31:43.821Z,8.88
2023-03-11T11:35:01.302Z,8.35
2023-03-11T11:38:12.003Z,9.40
2023-03-11T11:41:18.616Z,9.10
2023-03-11T11:44:25.037Z,8.70
2023-03-11T11:47:33.536Z,9.18
2023-03-11T11:50:46.563Z,9.23
2023-03-11T11:53:55.497Z,8.75
2023-03-11T11:57:01.708Z,8.85
2023-03-11T12:00:09.909Z,8.10
2023-03-11T12:03:38.161Z,8.65
2023-03-11T12:06:49.627Z,8.95
2023-03-11T12:10:07.275Z,9.20
2023-03-11T12:13:37.874Z,9.15
2023-03-11T12:16:50.762Z,9.70
2023-03-11T12:19:58.108Z,9.32
2023-03-11T12:23:23.190Z,9.43
2023-03-11T12:26:29.619Z,9.23
2023-03-11T12:29:37.614Z,9.90
2023-03-11T12:32:44.841Z,10.00
2023-03-11T12:35:56.389Z,9.23
2023-03-11T12:39:06.102Z,9.65
2023-03-11T12:42:21.931Z,9.27
2023-03-11T12:45:50.580Z,9.50
2023-03-11T12:49:09.164Z,10.75
2023-03-11T12:55:36.349Z,9.68
2023-03-11T12:58:50.523Z,8.80
2023-03-11T13:02:01.200Z,9.13
2023-03-11T13:05:14.672Z,8.85
2023-03-11T13:08:20.695Z,8.75
2023-03-11T13:11:39.826Z,9.93
2023-03-11T13:14:45.082Z,9.68
2023-03-11T13:17:59.298Z,9.52
2023-03-11T13:21:04.696Z,9.60
2023-03-11T13:24:26.168Z,10.07
2023-03-11T13:27:45.325Z,9.43
2023-03-11T13:30:55.093Z,9.95
2023-03-11T13:34:05.689Z,10.10
2023-03-11T13:37:17.707Z,9.65
2023-03-11T13:40:31.910Z,8.70
2023-03-11T13:43:46.127Z,10.10
2023-03-11T13:46:53.027Z,9.00
2023-03-11T13:50:02.957Z,9.07
2023-03-11T13:53:11.640Z,9.05
2023-03-11T13:59:26.283Z,9.50
2023-03-11T14:02:31.595Z,8.85
2023-03-11T14:05:37.956Z,8.13
2023-03-11T14:08:43.719Z,8.60
2023-03-11T14:11:49.864Z,8.13
2023-03-11T14:14:59.632Z,8.80
2023-03-11T14:18:27.363Z,8.90
2023-03-11T14:21:32.888Z,9.10
2023-03-11T14:24:38.767Z,8.90
2023-03-11T14:27:49.799Z,9.02
2023-03-11T14:31:07.004Z,9.93
2023-03-11T14:34:16.988Z,8.60
2023-03-11T14:37:27.757Z,8.88
2023-03-11T14:40:34.276Z,8.95
2023-03-11T14:43:41.826Z,10.73
2023-03-11T14:46:50.020Z,9.00
2023-03-11T14:49:56.185Z,9.82
2023-03-11T14:53:04.640Z,9.50
2023-03-11T14:56:11.701Z,9.90
2023-03-11T14:59:19.061Z,9.18
2023-03-11T15:02:42.130Z,10.05
2023-03-11T15:05:51.377Z,9.27
2023-03-11T15:08:59.606Z,9.52
2023-03-11T15:12:06.881Z,10.30
2023-03-11T15:15:25.470Z,10.63
2023-03-11T15:18:32.782Z,9.00
2023-03-11T15:21:40.723Z,9.25
2023-03-11T15:24:45.939Z,8.90
2023-03-11T15:27:51.170Z,8.65
2023-03-11T15:31:10.970Z,9.18
2023-03-11T15:34:32.769Z,9.45
2023-03-11T15:37:41.550Z,9.02
2023-03-11T15:40:53.989Z,8.80
2023-03-11T15:44:02.201Z,8.70
2023-03-11T15:47:07.701Z,9.05
2023-03-11T15:50:24.523Z,9.20
2023-03-11T15:53:33.827Z,8.57
2023-03-11T15:59:44.441Z,8.65
2023-03-11T16:02:50.111Z,9.45
2023-03-11T16:05:55.475Z,8.70
2023-03-11T16:09:03.374Z,8.68
2023-03-11T16:12:13.344Z,10.18
2023-03-11T16:15:28.736Z,10.00
2023-03-11T16:18:36.214Z,10.27
2023-03-11T16:21:44.455Z,10.02
2023-03-11T16:24:53.565Z,9.85
2023-03-11T16:27:59.363Z,10.02
2023-03-11T16:31:04.877Z,10.43
2023-03-11T16:34:10.397Z,9.65
2023-03-11T16:37:20.815Z,10.20
2023-03-11T16:40:29.900Z,9.52
2023-03-11T16:43:35.293Z,9.13
2023-03-11T16:46:40.728Z,9.80
2023-03-11T16:49:46.159Z,9.88
2023-03-11T16:52:52.861Z,9.40
2023-03-11T16:56:00.724Z,9.63
2023-03-11T16:59:05.777Z,9.65
2023-03-11T17:02:13.109Z,10.32
2023-03-11T17:05:18.446Z,9.43
2023-03-11T17:08:25.377Z,10.60
2023-03-11T17:11:34.601Z,9.60
2023-03-11T17:14:40.217Z,8.65
2023-03-11T17:17:45.675Z,9.57
2023-03-11T17:20:50.722Z,10.57
2023-03-11T17:23:56.143Z,9.45
2023-03-11T17:27:03.850Z,10.05
2023-03-11T17:30:10.130Z,9.93
2023-03-11T17:33:15.131Z,9.80
2023-03-11T17:36:20.986Z,10.90
2023-03-11T17:39:26.328Z,9.40
2023-03-11T17:42:34.191Z,9.05
2023-03-11T17:45:41.520Z,9.18
2023-03-11T17:48:47.288Z,8.85
2023-03-11T17:51:52.329Z,8.70
2023-03-11T17:54:57.680Z,9.10
2023-03-11T17:58:05.484Z,9.07
2023-03-11T18:01:11.827Z,10.77
2023-03-11T18:04:17.152Z,9.15
2023-03-11T18:07:23.861Z,10.90
2023-03-11T18:10:28.993Z,9.50
2023-03-11T18:13:37.212Z,10.43
2023-03-11T18:16:42.808Z,8.93
2023-03-11T18:19:48.211Z,9.80
2023-03-11T18:22:56.218Z,9.07
2023-03-11T18:26:01.764Z,9.73
2023-03-11T18:29:09.497Z,9.40
2023-03-11T18:32:14.683Z,9.38
2023-03-11T18:35:19.936Z,10.50
2023-03-11T18:38:25.187Z,9.80
2023-03-11T18:41:31.137Z,10.40
2023-03-11T18:44:39.017Z,10.98
2023-03-11T18:47:44.080Z,10.65
2023-03-11T18:50:53.828Z,10.18
2023-03-11T18:53:59.159Z,10.60
2023-03-11T18:57:04.911Z,9.95
2023-03-11T19:00:13.655Z,10.40
2023-03-11T19:03:19.100Z,11.27
2023-03-11T19:06:25.016Z,10.68
2023-03-11T19:09:30.536Z,10.85
2023-03-11T19:12:35.586Z,10.50
2023-03-11T19:15:44.886Z,11.95
2023-03-11T19:18:50.446Z,11.63
2023-03-11T19:21:55.796Z,10.93
2023-03-11T19:25:01.250Z,11.77
2023-03-11T19:28:07.814Z,11.82
2023-03-11T19:31:15.908Z,11.15
2023-03-11T19:34:21.691Z,11.75
2023-03-11T19:37:27.249Z,11.38
2023-03-11T19:40:33.667Z,11.68
2023-03-11T19:43:39.179Z,12.80
2023-03-11T19:46:47.027Z,12.30
2023-03-11T19:49:52.315Z,12.80
2023-03-11T19:52:57.474Z,12.73
2023-03-11T19:56:04.935Z,12.70
2023-03-11T19:59:10.312Z,14.07
2023-03-11T20:02:18.466Z,11.98
2023-03-11T20:05:23.790Z,11.18
2023-03-11T20:08:30.743Z,11.60
2023-03-11T20:11:35.791Z,12.52
2023-03-11T20:14:41.318Z,12.02
2023-03-11T20:17:49.221Z,10.73
2023-03-11T20:20:54.988Z,12.02
2023-03-11T20:24:01.250Z,9.90
2023-03-11T20:27:06.701Z,10.15
2023-03-11T20:30:12.571Z,11.18
2023-03-11T20:33:20.546Z,10.52
2023-03-11T20:36:26.774Z,10.20
2023-03-11T20:39:32.371Z,10.60
2023-03-11T20:42:37.612Z,9.65
2023-03-11T20:45:42.805Z,10.55
2023-03-11T20:48:50.731Z,9.48
2023-03-11T20:51:56.073Z,8.85
2023-03-11T20:55:01.234Z,9.48
2023-03-11T20:58:08.236Z,9.25
2023-03-11T21:01:14.907Z,8.20
2023-03-11T21:04:24.680Z,8.73
2023-03-11T21:07:30.178Z,10.20
2023-03-11T21:10:36.266Z,9.10
2023-03-11T21:13:41.457Z,8.82
2023-03-11T21:16:46.735Z,8.48
2023-03-11T21:19:55.066Z,9.73
2023-03-11T21:23:00.398Z,8.75
2023-03-11T21:26:06.107Z,9.13
2023-03-11T21:29:11.244Z,9.23
2023-03-11T21:32:16.370Z,8.70
2023-03-11T21:35:24.337Z,8.88
2023-03-11T21:38:29.893Z,8.38
2023-03-11T21:41:35.014Z,8.23
2023-03-11T21:44:40.221Z,7.88
2023-03-11T21:47:45.474Z,7.38
2023-03-11T21:50:54.914Z,7.35
2023-03-11T21:54:00.215Z,7.50
2023-03-11T21:57:05.620Z,7.60
2023-03-11T22:00:11.586Z,7.38
2023-03-11T22:03:17.187Z,7.40
2023-03-11T22:06:25.029Z,7.53
2023-03-11T22:09:30.820Z,7.45
2023-03-11T22:12:35.937Z,7.57
2023-03-11T22:15:41.416Z,6.95
2023-03-11T22:18:47.108Z,7.50
2023-03-11T22:21:55.179Z,7.03
2023-03-11T22:25:00.542Z,7.22
2023-03-11T22:28:05.910Z,7.68
2023-03-11T22:31:11.622Z,6.70
2023-03-11T22:34:16.868Z,6.20
2023-03-11T22:37:24.560Z,6.10
2023-03-11T22:40:29.945Z,6.60
2023-03-11T22:43:35.125Z,6.80
2023-03-11T22:46:40.194Z,6.43
2023-03-11T22:49:45.576Z,5.70
2023-03-11T22:52:53.545Z,6.30
2023-03-11T22:55:58.582Z,6.60
2023-03-11T22:59:03.941Z,5.28
2023-03-11T23:02:09.495Z,5.60
2023-03-11T23:05:15.212Z,4.90
2023-03-11T23:08:23.328Z,5.07
2023-03-11T23:11:28.391Z,10.25
2023-03-11T23:14:44.704Z,4.55
2023-03-11T23:17:50.558Z,4.32
2023-03-11T23:20:55.660Z,3.88
2023-03-11T23:24:05.393Z,3.97
2023-03-11T23:27:10.656Z,3.72
2023-03-11T23:30:17.599Z,3.05
2023-03-11T23:33:22.875Z,3.40
2023-03-11T23:36:30.563Z,4.13
2023-03-11T23:39:38.681Z,3.45
2023-03-11T23:42:43.593Z,3.75
2023-03-11T23:45:49.436Z,3.55
2023-03-11T23:48:54.522Z,3.47
2023-03-11T23:51:59.941Z,3.90
2023-03-11T23:55:08.106Z,3.40
2023-03-11T23:58:13.671Z,3.85
